Time;durP1;ratioP1;P1;durP2;ratioP2;P2;SDS_P1;SDS_P2;PMS_P1;PMS_P2;Temp;Humidity;BMP_temperature;BMP_pressure;BME280_temperature;BME280_humidity;BME280_pressure;Samples;Min_cycle;Max_cycle;Signal;HPM_P1;HPM_P2
2021/12/27 00:02:04;;;;;;;23.47;16.43;;;3.30;99.90;;;;;;6274585;28;20793;-64
2021/12/27 00:05:08;;;;;;;20.33;14.10;;;3.30;99.90;;;;;;6274192;28;20470;-63
2021/12/27 00:08:11;;;;;;;19.97;14.43;;;3.40;99.90;;;;;;6274101;28;20481;-64
2021/12/27 00:11:15;;;;;;;22.93;15.53;;;3.40;99.90;;;;;;6273921;28;20470;-63
2021/12/27 00:14:19;;;;;;;23.43;16.10;;;3.40;99.90;;;;;;6274157;28;20486;-62
2021/12/27 00:17:22;;;;;;;21.90;16.23;;;3.40;99.90;;;;;;6268898;28;20854;-62
2021/12/27 00:20:26;;;;;;;23.13;16.83;;;3.40;99.90;;;;;;6251109;28;20810;-63
2021/12/27 00:23:29;;;;;;;22.17;16.00;;;3.40;99.90;;;;;;6257794;28;20482;-63
2021/12/27 00:26:32;;;;;;;23.73;15.57;;;3.40;99.90;;;;;;6260925;28;20517;-63
2021/12/27 00:29:36;;;;;;;22.30;17.20;;;3.40;99.90;;;;;;6263629;28;20466;-64
2021/12/27 00:32:43;;;;;;;22.60;16.27;;;3.40;99.90;;;;;;6264167;28;20462;-62
2021/12/27 00:35:47;;;;;;;22.00;14.67;;;3.40;99.90;;;;;;6265258;28;20954;-62
2021/12/27 00:38:50;;;;;;;28.07;15.53;;;3.40;99.90;;;;;;6260739;28;20954;-62
2021/12/27 00:41:54;;;;;;;23.60;16.23;;;3.50;99.90;;;;;;6261818;28;20486;-62
2021/12/27 00:44:58;;;;;;;25.20;15.87;;;3.50;99.90;;;;;;6259315;28;20505;-63
2021/12/27 00:48:02;;;;;;;19.47;15.07;;;3.40;99.90;;;;;;6275321;28;20448;-63
2021/12/27 00:51:05;;;;;;;24.30;15.30;;;3.40;99.90;;;;;;6275528;28;20446;-63
2021/12/27 00:54:08;;;;;;;22.57;14.90;;;3.30;99.90;;;;;;6275526;28;20960;-63
2021/12/27 00:57:11;;;;;;;21.80;14.70;;;3.40;99.90;;;;;;6275362;28;20465;-63
2021/12/27 01:00:18;;;;;;;27.10;16.77;;;3.40;99.90;;;;;;6274921;28;20465;-63
2021/12/27 01:03:21;;;;;;;20.70;14.70;;;3.30;99.90;;;;;;6275331;28;20470;-63
2021/12/27 01:06:24;;;;;;;19.40;13.80;;;3.40;99.90;;;;;;6274813;28;20481;-63
2021/12/27 01:09:36;;;;;;;20.50;14.63;;;3.30;99.90;;;;;;6275050;28;20484;-63
2021/12/27 01:12:50;;;;;;;18.00;13.33;;;3.40;99.90;;;;;;6274895;28;20462;-63
2021/12/27 01:16:10;;;;;;;17.70;12.80;;;3.40;99.90;;;;;;6274877;28;20596;-63
2021/12/27 01:19:14;;;;;;;15.37;11.13;;;3.40;99.90;;;;;;6275545;28;20470;-63
2021/12/27 01:22:17;;;;;;;16.93;11.67;;;3.40;99.90;;;;;;6270315;28;20473;-63
2021/12/27 01:25:21;;;;;;;17.50;13.03;;;3.30;99.90;;;;;;6274530;28;20466;-63
2021/12/27 01:28:24;;;;;;;20.47;14.43;;;3.30;99.90;;;;;;6278007;28;20474;-63
2021/12/27 01:31:29;;;;;;;20.73;13.47;;;3.30;99.90;;;;;;6280266;28;20528;-63
2021/12/27 01:34:32;;;;;;;16.23;12.70;;;3.30;99.90;;;;;;6279279;28;20814;-63
2021/12/27 01:37:36;;;;;;;20.30;13.30;;;3.30;99.90;;;;;;6279677;28;20528;-63
2021/12/27 01:40:40;;;;;;;18.50;12.40;;;3.30;99.90;;;;;;6279998;28;20535;-63
2021/12/27 01:43:44;;;;;;;14.90;12.27;;;3.20;99.90;;;;;;6279360;28;20474;-63
2021/12/27 01:46:48;;;;;;;15.83;11.73;;;3.20;99.90;;;;;;6280005;28;20473;-63
2021/12/27 01:49:51;;;;;;;18.47;12.40;;;3.10;99.90;;;;;;6279475;28;20470;-63
2021/12/27 01:52:54;;;;;;;15.67;10.50;;;3.20;99.90;;;;;;6279728;28;20803;-63
2021/12/27 01:55:58;;;;;;;15.10;11.30;;;3.20;99.90;;;;;;6279602;28;20470;-63
2021/12/27 01:59:01;;;;;;;15.50;11.63;;;3.20;99.90;;;;;;6279298;28;20846;-63
2021/12/27 02:02:05;;;;;;;18.97;11.93;;;3.20;99.90;;;;;;6278794;28;20478;-63
2021/12/27 02:05:09;;;;;;;20.60;12.80;;;3.20;99.90;;;;;;6279002;28;20480;-63
2021/12/27 02:08:13;;;;;;;19.57;13.70;;;3.20;99.90;;;;;;6279091;28;20790;-63
2021/12/27 02:11:17;;;;;;;20.23;14.80;;;3.20;99.90;;;;;;6279092;28;20466;-63
2021/12/27 02:14:21;;;;;;;18.30;12.20;;;3.20;99.90;;;;;;6279353;28;20488;-63
2021/12/27 02:17:26;;;;;;;21.00;15.83;;;3.30;99.90;;;;;;6279079;28;20479;-63
2021/12/27 02:20:32;;;;;;;22.53;14.80;;;3.30;99.90;;;;;;6278709;28;20474;-63
2021/12/27 02:23:37;;;;;;;21.37;14.90;;;3.30;99.90;;;;;;6278604;28;20493;-63
2021/12/27 02:26:41;;;;;;;27.10;16.47;;;3.30;99.90;;;;;;6274548;28;20542;-63
2021/12/27 02:29:44;;;;;;;25.83;17.47;;;3.30;99.90;;;;;;6278663;28;20474;-63
2021/12/27 02:32:49;;;;;;;24.70;17.50;;;3.30;99.90;;;;;;6278951;28;20480;-63
2021/12/27 02:35:56;;;;;;;24.37;17.40;;;3.30;99.90;;;;;;6278647;28;20485;-63
2021/12/27 02:38:59;;;;;;;24.87;16.20;;;3.20;99.90;;;;;;6278716;28;20438;-63
2021/12/27 02:42:03;;;;;;;25.67;15.57;;;3.30;99.90;;;;;;6278771;28;20438;-63
2021/12/27 02:45:08;;;;;;;22.50;15.67;;;3.30;99.90;;;;;;6278296;28;20782;-63
2021/12/27 02:48:12;;;;;;;23.00;15.57;;;3.30;99.90;;;;;;6278329;28;20922;-63
2021/12/27 02:51:18;;;;;;;26.83;17.17;;;3.30;99.90;;;;;;6278633;28;20454;-63
2021/12/27 02:54:21;;;;;;;26.70;16.80;;;3.30;99.90;;;;;;6278231;28;20465;-63
2021/12/27 02:57:24;;;;;;;26.23;17.30;;;3.30;99.90;;;;;;6277992;28;20473;-63
2021/12/27 03:00:29;;;;;;;26.27;17.03;;;3.20;99.90;;;;;;6277927;28;20517;-63
2021/12/27 03:03:33;;;;;;;27.40;17.00;;;3.20;99.90;;;;;;6278397;28;20565;-62
2021/12/27 03:06:37;;;;;;;21.23;16.50;;;3.20;99.90;;;;;;6277932;28;20466;-62
2021/12/27 03:09:40;;;;;;;19.97;14.13;;;3.20;99.90;;;;;;6277618;28;20462;-62
2021/12/27 03:12:45;;;;;;;21.33;15.70;;;3.20;99.90;;;;;;6278094;28;20462;-63
2021/12/27 03:15:52;;;;;;;19.37;15.13;;;3.20;99.90;;;;;;6277464;28;20846;-62
2021/12/27 03:18:55;;;;;;;20.30;14.77;;;3.20;99.90;;;;;;6277695;28;20596;-62
2021/12/27 03:22:00;;;;;;;19.90;12.83;;;3.20;99.90;;;;;;6277700;28;20478;-63
2021/12/27 03:25:03;;;;;;;18.30;14.00;;;3.20;99.90;;;;;;6277314;28;20470;-63
2021/12/27 03:28:07;;;;;;;20.50;14.70;;;3.20;99.90;;;;;;6276947;28;20474;-63
2021/12/27 03:31:11;;;;;;;17.90;12.97;;;3.20;99.90;;;;;;6277343;28;20767;-63
2021/12/27 03:34:14;;;;;;;17.27;12.10;;;3.20;99.90;;;;;;6276997;28;20490;-63
2021/12/27 03:37:19;;;;;;;16.77;13.20;;;3.20;99.90;;;;;;6277180;28;20560;-63
2021/12/27 03:40:23;;;;;;;19.53;13.43;;;3.20;99.90;;;;;;6276851;28;20482;-63
2021/12/27 03:43:26;;;;;;;20.20;14.20;;;3.10;99.90;;;;;;6277076;28;20478;-63
2021/12/27 03:46:29;;;;;;;18.13;12.97;;;3.10;99.90;;;;;;6277125;28;20466;-63
2021/12/27 03:49:33;;;;;;;20.67;14.03;;;3.10;99.90;;;;;;6276777;28;20489;-62
2021/12/27 03:52:38;;;;;;;20.17;14.23;;;3.10;99.90;;;;;;6276796;28;20523;-62
2021/12/27 03:55:41;;;;;;;21.10;15.83;;;3.20;99.90;;;;;;6277256;28;20485;-63
2021/12/27 03:58:54;;;;;;;22.30;15.20;;;3.20;99.90;;;;;;6276712;28;20973;-63
2021/12/27 04:01:57;;;;;;;25.70;16.73;;;3.20;99.90;;;;;;6276895;28;20470;-63
2021/12/27 04:05:00;;;;;;;25.80;15.87;;;3.20;99.90;;;;;;6275262;28;20478;-63
2021/12/27 04:08:09;;;;;;;22.93;15.10;;;3.10;99.90;;;;;;6276698;28;20478;-64
2021/12/27 04:11:12;;;;;;;24.57;14.80;;;3.00;99.90;;;;;;6276733;28;20474;-63
2021/12/27 04:14:16;;;;;;;20.53;13.30;;;3.00;99.90;;;;;;6276530;28;20466;-63
2021/12/27 04:17:20;;;;;;;22.83;16.00;;;3.00;99.90;;;;;;6276432;28;20559;-63
2021/12/27 04:20:23;;;;;;;26.23;17.10;;;3.00;99.90;;;;;;6276559;28;20826;-63
2021/12/27 04:23:28;;;;;;;24.17;16.20;;;3.00;99.90;;;;;;6276508;28;20478;-63
2021/12/27 04:26:31;;;;;;;23.57;15.97;;;2.90;99.90;;;;;;6276045;28;20520;-63
2021/12/27 04:29:35;;;;;;;27.83;16.60;;;2.90;99.90;;;;;;6276376;28;21008;-63
2021/12/27 04:32:38;;;;;;;23.93;15.70;;;2.90;99.90;;;;;;6276058;28;20481;-63
2021/12/27 04:35:42;;;;;;;24.63;16.33;;;2.90;99.90;;;;;;6266407;28;20493;-63
2021/12/27 04:38:47;;;;;;;23.83;17.40;;;3.00;99.90;;;;;;6276109;28;20470;-63
2021/12/27 04:41:50;;;;;;;27.87;18.30;;;3.00;99.90;;;;;;6275895;28;20977;-63
2021/12/27 04:44:53;;;;;;;21.10;15.77;;;3.00;99.90;;;;;;6276026;28;20475;-64
2021/12/27 04:48:01;;;;;;;25.43;15.03;;;3.10;99.90;;;;;;6275865;28;20442;-63
2021/12/27 04:51:04;;;;;;;22.53;15.90;;;3.00;99.90;;;;;;6275677;28;20453;-63
2021/12/27 04:54:08;;;;;;;24.77;17.10;;;3.00;99.90;;;;;;6275215;28;20473;-63
2021/12/27 04:57:11;;;;;;;21.80;14.67;;;3.10;99.90;;;;;;6275553;28;20439;-62
2021/12/27 05:00:15;;;;;;;19.73;13.10;;;3.00;99.90;;;;;;6275158;28;20531;-62
2021/12/27 05:03:18;;;;;;;21.33;13.73;;;3.00;99.90;;;;;;6274297;28;20957;-63
2021/12/27 05:06:22;;;;;;;25.07;15.33;;;3.00;99.90;;;;;;6275587;28;20531;-63
2021/12/27 05:09:26;;;;;;;23.60;15.67;;;3.00;99.90;;;;;;6275864;28;20477;-64
2021/12/27 05:12:29;;;;;;;28.60;16.70;;;3.10;99.90;;;;;;6275015;28;21089;-63
2021/12/27 05:15:32;;;;;;;25.10;16.30;;;3.10;99.90;;;;;;6275570;28;20470;-63
2021/12/27 05:18:35;;;;;;;27.03;17.70;;;3.10;99.90;;;;;;6275190;28;20473;-64
2021/12/27 05:21:39;;;;;;;28.27;17.00;;;3.10;99.90;;;;;;6274773;28;20543;-63
2021/12/27 05:24:43;;;;;;;27.03;16.60;;;3.00;99.90;;;;;;6274995;28;20486;-63
2021/12/27 05:27:47;;;;;;;32.37;17.53;;;2.90;99.90;;;;;;6275075;28;20543;-64
2021/12/27 05:30:54;;;;;;;33.63;19.83;;;2.90;99.90;;;;;;6275106;28;20788;-63
2021/12/27 05:33:57;;;;;;;31.53;18.70;;;2.90;99.90;;;;;;6274534;28;20927;-64
2021/12/27 05:37:00;;;;;;;33.80;20.20;;;2.90;99.90;;;;;;6270413;28;20528;-63
2021/12/27 05:40:06;;;;;;;30.50;18.30;;;2.90;99.90;;;;;;6275028;28;20480;-63
2021/12/27 05:43:10;;;;;;;40.07;21.20;;;2.90;99.90;;;;;;6274596;28;20854;-62
2021/12/27 05:46:13;;;;;;;35.57;21.10;;;2.90;99.90;;;;;;6274801;28;20977;-63
2021/12/27 05:49:16;;;;;;;36.17;20.60;;;2.90;99.90;;;;;;6274363;28;21018;-63
2021/12/27 05:52:20;;;;;;;35.40;20.43;;;2.90;99.90;;;;;;6273389;28;20493;-64
2021/12/27 05:55:24;;;;;;;35.07;19.50;;;2.90;99.90;;;;;;6263673;28;20531;-64
2021/12/27 05:58:28;;;;;;;29.07;17.23;;;2.80;99.90;;;;;;6250797;28;20978;-63
2021/12/27 06:01:31;;;;;;;29.37;18.30;;;2.80;99.90;;;;;;6259606;28;20935;-63
2021/12/27 06:04:34;;;;;;;32.17;17.53;;;2.80;99.90;;;;;;6260556;28;20543;-63
2021/12/27 06:07:37;;;;;;;26.63;17.40;;;2.70;99.90;;;;;;6273937;28;20489;-62
2021/12/27 06:10:42;;;;;;;30.10;18.10;;;2.70;99.90;;;;;;6274114;28;20470;-62
2021/12/27 06:13:45;;;;;;;30.30;17.03;;;2.80;99.90;;;;;;6275898;28;20489;-62
2021/12/27 06:16:48;;;;;;;31.67;17.60;;;2.80;99.90;;;;;;6260874;28;20486;-62
2021/12/27 06:19:51;;;;;;;29.00;16.40;;;2.90;99.90;;;;;;6254554;28;20478;-63
2021/12/27 06:22:57;;;;;;;28.13;16.83;;;2.90;99.90;;;;;;6253227;28;20811;-62
2021/12/27 06:26:02;;;;;;;26.40;16.23;;;2.80;99.90;;;;;;6252741;28;20487;-62
2021/12/27 06:29:05;;;;;;;25.00;15.80;;;2.80;99.90;;;;;;6252172;28;20837;-62
2021/12/27 06:32:13;;;;;;;28.50;17.37;;;2.90;99.90;;;;;;6252345;28;20478;-62
2021/12/27 06:35:17;;;;;;;34.83;18.20;;;2.80;99.90;;;;;;6252423;28;20489;-62
2021/12/27 06:38:21;;;;;;;33.17;18.97;;;2.80;99.90;;;;;;6252577;28;20487;-63
2021/12/27 06:41:25;;;;;;;29.27;17.63;;;2.80;99.90;;;;;;6253079;28;20478;-63
2021/12/27 06:44:28;;;;;;;33.27;17.87;;;2.80;99.90;;;;;;6243659;28;20490;-62
2021/12/27 06:47:32;;;;;;;28.20;15.80;;;2.60;99.90;;;;;;6253771;28;20479;-62
2021/12/27 06:50:35;;;;;;;34.97;16.60;;;2.50;99.90;;;;;;6253262;28;20786;-62
2021/12/27 06:53:38;;;;;;;27.63;15.17;;;2.40;99.90;;;;;;6253245;28;20483;-62
2021/12/27 06:56:42;;;;;;;28.27;15.83;;;2.30;99.90;;;;;;6253482;28;20466;-62
2021/12/27 06:59:46;;;;;;;24.70;13.50;;;2.20;99.90;;;;;;6253615;28;20466;-62
2021/12/27 07:02:49;;;;;;;22.20;12.83;;;2.20;99.90;;;;;;6275509;28;20470;-62
2021/12/27 07:05:53;;;;;;;24.53;14.20;;;2.20;99.90;;;;;;6277937;28;20477;-62
2021/12/27 07:08:56;;;;;;;31.37;15.43;;;2.20;99.90;;;;;;6277456;28;20977;-62
2021/12/27 07:12:01;;;;;;;32.50;14.30;;;2.30;99.90;;;;;;6278011;28;20450;-62
2021/12/27 07:15:05;;;;;;;24.73;13.70;;;2.30;99.90;;;;;;6278223;28;20926;-62
2021/12/27 07:18:09;;;;;;;32.40;15.63;;;2.30;99.90;;;;;;6278140;28;20438;-62
2021/12/27 07:21:12;;;;;;;26.80;15.03;;;2.30;99.90;;;;;;6277798;28;20911;-62
2021/12/27 07:24:15;;;;;;;30.00;15.50;;;2.30;99.90;;;;;;6276984;28;20466;-62
2021/12/27 07:27:19;;;;;;;24.23;15.07;;;2.20;99.90;;;;;;6277499;28;20474;-62
2021/12/27 07:30:22;;;;;;;23.37;13.53;;;2.20;99.90;;;;;;6277412;28;20472;-62
2021/12/27 07:33:26;;;;;;;24.83;15.07;;;2.20;99.90;;;;;;6277557;28;20485;-62
2021/12/27 07:36:30;;;;;;;21.70;13.67;;;2.40;99.90;;;;;;6276996;28;20481;-62
2021/12/27 07:39:35;;;;;;;21.23;13.37;;;2.30;99.90;;;;;;6277875;28;20466;-62
2021/12/27 07:42:40;;;;;;;19.50;12.50;;;2.40;99.90;;;;;;6277356;28;20982;-63
2021/12/27 07:45:43;;;;;;;20.77;13.27;;;2.30;99.90;;;;;;6272184;28;20561;-63
2021/12/27 07:48:47;;;;;;;19.87;12.47;;;2.20;99.90;;;;;;6277139;28;20478;-62
2021/12/27 07:51:50;;;;;;;21.40;13.70;;;2.30;99.90;;;;;;6277261;28;20469;-62
2021/12/27 07:54:53;;;;;;;19.67;12.33;;;2.40;99.90;;;;;;6276906;28;20543;-63
2021/12/27 07:57:59;;;;;;;20.27;12.20;;;2.40;99.90;;;;;;6276851;28;20470;-63
2021/12/27 08:01:02;;;;;;;24.50;13.77;;;2.50;99.90;;;;;;6276394;28;20820;-63
2021/12/27 08:04:07;;;;;;;36.13;21.00;;;2.50;99.90;;;;;;6276214;28;20946;-63
2021/12/27 08:07:10;;;;;;;50.10;27.00;;;2.50;99.90;;;;;;6276083;28;20485;-63
2021/12/27 08:10:15;;;;;;;25.00;14.63;;;2.60;99.90;;;;;;6275864;28;20967;-63
2021/12/27 08:13:19;;;;;;;32.80;20.20;;;2.70;99.90;;;;;;6276540;28;20466;-62
2021/12/27 08:16:24;;;;;;;48.23;26.23;;;2.80;99.90;;;;;;6275948;28;20473;-62
2021/12/27 08:19:27;;;;;;;52.00;28.60;;;2.90;99.90;;;;;;6275734;28;20478;-62
2021/12/27 08:22:30;;;;;;;43.27;22.67;;;3.00;99.90;;;;;;6275743;28;21150;-62
2021/12/27 08:25:33;;;;;;;32.90;20.10;;;3.10;99.90;;;;;;6275961;28;20932;-62
2021/12/27 08:28:38;;;;;;;33.43;20.00;;;3.20;99.90;;;;;;6275587;28;20481;-62
2021/12/27 08:31:41;;;;;;;23.10;15.17;;;3.30;99.90;;;;;;6275811;28;20911;-62
2021/12/27 08:34:44;;;;;;;37.00;21.30;;;3.30;99.90;;;;;;6275625;28;20478;-63
2021/12/27 08:37:47;;;;;;;42.57;25.40;;;3.40;99.90;;;;;;6275332;28;20474;-63
2021/12/27 08:40:50;;;;;;;34.23;18.90;;;3.40;99.90;;;;;;6276070;28;20478;-63
2021/12/27 08:43:56;;;;;;;44.10;23.10;;;3.40;99.90;;;;;;6275339;28;20481;-63
2021/12/27 08:46:59;;;;;;;32.60;22.13;;;3.30;99.90;;;;;;6275132;28;20482;-63
2021/12/27 08:50:02;;;;;;;19.40;14.47;;;3.30;99.90;;;;;;6275583;28;20472;-64
2021/12/27 08:53:07;;;;;;;23.67;18.17;;;3.20;99.90;;;;;;6270505;28;20481;-62
2021/12/27 08:56:11;;;;;;;21.23;15.90;;;3.20;99.90;;;;;;6275205;28;20524;-62
2021/12/27 08:59:15;;;;;;;23.27;16.80;;;3.20;99.90;;;;;;6275864;28;20481;-62
2021/12/27 09:02:18;;;;;;;29.27;19.37;;;3.30;99.90;;;;;;6274947;28;20474;-63
2021/12/27 09:05:22;;;;;;;30.67;23.57;;;3.40;99.90;;;;;;6275128;28;20762;-63
2021/12/27 09:08:25;;;;;;;23.23;15.37;;;3.40;99.90;;;;;;6274868;28;20535;-63
2021/12/27 09:11:28;;;;;;;22.23;14.60;;;3.30;99.90;;;;;;6274917;28;20481;-63
2021/12/27 09:14:32;;;;;;;22.73;13.87;;;3.30;99.90;;;;;;6274688;28;20504;-63
2021/12/27 09:17:36;;;;;;;17.70;11.43;;;3.40;99.90;;;;;;6275187;28;20466;-62
2021/12/27 09:20:39;;;;;;;18.93;12.87;;;3.40;99.90;;;;;;6275076;28;20497;-62
2021/12/27 09:23:42;;;;;;;17.87;11.20;;;3.40;99.90;;;;;;6274820;28;20474;-62
2021/12/27 09:26:46;;;;;;;20.50;13.50;;;3.60;99.90;;;;;;6266083;28;20486;-62
2021/12/27 09:29:51;;;;;;;19.57;12.00;;;3.50;99.90;;;;;;6251487;28;20482;-62
2021/12/27 09:32:54;;;;;;;15.67;11.10;;;3.60;99.90;;;;;;6263931;28;20480;-63
2021/12/27 09:35:57;;;;;;;21.00;12.27;;;3.60;99.90;;;;;;6272869;28;20450;-62
2021/12/27 09:39:01;;;;;;;19.90;13.50;;;3.60;99.90;;;;;;6268778;28;20438;-63
2021/12/27 09:42:05;;;;;;;23.87;14.17;;;3.60;99.90;;;;;;6261745;28;20461;-62
2021/12/27 09:45:10;;;;;;;30.83;19.77;;;3.70;99.90;;;;;;6255053;28;20458;-63
2021/12/27 09:48:14;;;;;;;28.40;15.00;;;3.70;99.90;;;;;;6262113;28;20501;-63
2021/12/27 09:51:17;;;;;;;40.00;25.67;;;3.60;99.90;;;;;;6264456;28;20459;-62
2021/12/27 09:54:20;;;;;;;37.17;22.80;;;3.70;99.90;;;;;;6261311;28;20486;-63
2021/12/27 09:57:23;;;;;;;31.97;20.87;;;3.80;99.90;;;;;;6270394;28;20474;-66
2021/12/27 10:00:29;;;;;;;21.00;13.43;;;3.80;99.90;;;;;;6257367;28;20466;-66
2021/12/27 10:03:44;;;;;;;18.93;12.27;;;3.80;99.90;;;;;;6271139;28;20490;-66
2021/12/27 10:06:51;;;;;;;16.70;11.60;;;3.90;99.90;;;;;;6254620;28;20993;-66
2021/12/27 10:09:55;;;;;;;16.10;11.90;;;4.00;99.90;;;;;;6260736;28;20984;-64
2021/12/27 10:12:58;;;;;;;23.53;14.27;;;4.10;99.90;;;;;;6277652;28;20477;-64
2021/12/27 10:16:03;;;;;;;16.87;12.27;;;4.10;99.90;;;;;;6279043;28;20470;-63
2021/12/27 10:19:09;;;;;;;18.17;12.17;;;4.20;99.90;;;;;;6278380;28;20816;-63
2021/12/27 10:22:16;;;;;;;21.70;14.07;;;4.20;99.90;;;;;;6278755;28;20474;-63
2021/12/27 10:25:21;;;;;;;21.30;14.00;;;4.00;99.90;;;;;;6278655;28;20473;-63
2021/12/27 10:28:26;;;;;;;21.13;14.17;;;4.00;99.90;;;;;;6278369;28;20474;-64
2021/12/27 10:31:30;;;;;;;18.83;12.70;;;4.00;99.90;;;;;;6278389;28;20474;-64
2021/12/27 10:34:36;;;;;;;26.33;14.73;;;4.00;99.90;;;;;;6277947;28;20482;-64
2021/12/27 10:37:43;;;;;;;24.63;14.20;;;4.00;99.90;;;;;;6278316;28;20961;-64
2021/12/27 10:40:51;;;;;;;23.73;16.23;;;4.00;99.90;;;;;;6278173;28;20470;-63
2021/12/27 10:43:56;;;;;;;28.27;15.97;;;3.90;99.90;;;;;;6278020;28;20481;-63
2021/12/27 10:47:42;;;;;;;23.83;14.57;;;3.90;99.90;;;;;;6266665;28;20482;-64
2021/12/27 10:50:45;;;;;;;21.90;14.10;;;4.10;99.90;;;;;;6278079;28;20470;-64
2021/12/27 10:53:51;;;;;;;24.90;13.63;;;4.10;99.90;;;;;;6277720;28;20807;-64
2021/12/27 10:57:02;;;;;;;24.90;14.37;;;4.10;99.90;;;;;;6275599;28;20434;-64
2021/12/27 11:00:16;;;;;;;21.60;13.37;;;4.10;99.90;;;;;;6275635;28;20466;-65
2021/12/27 11:03:28;;;;;;;20.30;14.77;;;4.10;99.90;;;;;;6253244;28;20975;-64
2021/12/27 11:06:33;;;;;;;25.20;15.30;;;4.10;99.90;;;;;;6253813;28;20482;-65
2021/12/27 11:09:36;;;;;;;22.00;15.20;;;4.20;99.90;;;;;;6258214;28;20553;-65
2021/12/27 11:12:39;;;;;;;19.87;15.60;;;4.20;99.90;;;;;;6277842;28;20614;-64
2021/12/27 11:15:43;;;;;;;21.80;13.60;;;4.20;99.90;;;;;;6277453;28;20484;-63
2021/12/27 11:18:48;;;;;;;25.47;15.80;;;4.20;99.90;;;;;;6277568;28;20473;-64
2021/12/27 11:21:51;;;;;;;22.43;15.07;;;4.20;99.90;;;;;;6276040;28;20477;-63
2021/12/27 11:24:55;;;;;;;20.77;13.70;;;4.30;99.90;;;;;;6276817;28;20981;-63
2021/12/27 11:27:59;;;;;;;17.57;13.70;;;4.20;99.90;;;;;;6276991;28;20794;-63
2021/12/27 11:31:07;;;;;;;20.97;14.20;;;4.20;99.90;;;;;;6277190;28;20475;-63
2021/12/27 11:34:13;;;;;;;16.07;12.10;;;4.30;99.90;;;;;;6276627;28;20482;-63
2021/12/27 11:37:17;;;;;;;22.60;13.80;;;4.20;99.90;;;;;;6272851;28;20475;-63
2021/12/27 11:40:21;;;;;;;19.63;13.33;;;3.90;99.90;;;;;;6252327;28;20479;-63
2021/12/27 11:43:24;;;;;;;20.90;13.20;;;3.80;99.90;;;;;;6252298;28;20487;-62
2021/12/27 11:46:29;;;;;;;17.63;12.53;;;3.80;99.90;;;;;;6252555;28;20861;-62
2021/12/27 11:49:37;;;;;;;19.57;12.80;;;3.80;99.90;;;;;;6252197;28;20489;-63
2021/12/27 11:52:47;;;;;;;18.07;12.70;;;4.00;99.90;;;;;;6252005;28;20854;-63
2021/12/27 11:55:50;;;;;;;18.37;12.57;;;4.10;99.90;;;;;;6269760;28;20470;-63
2021/12/27 11:58:53;;;;;;;21.27;13.00;;;4.20;99.90;;;;;;6276053;28;20466;-65
2021/12/27 12:02:00;;;;;;;20.47;12.67;;;4.40;99.90;;;;;;6266655;28;20477;-61
2021/12/27 12:05:05;;;;;;;23.13;14.57;;;4.40;99.90;;;;;;6273120;28;20565;-61
2021/12/27 12:08:10;;;;;;;16.40;11.73;;;4.50;99.90;;;;;;6276421;28;20482;-61
2021/12/27 12:11:13;;;;;;;17.67;12.27;;;4.50;99.90;;;;;;6275896;28;20796;-62
2021/12/27 12:14:28;;;;;;;16.27;11.47;;;4.60;99.90;;;;;;6276387;28;20477;-62
2021/12/27 12:17:43;;;;;;;17.00;12.13;;;4.70;99.90;;;;;;6274837;28;20467;-63
2021/12/27 12:20:47;;;;;;;25.87;12.83;;;4.80;99.90;;;;;;6275330;28;20792;-61
2021/12/27 12:23:59;;;;;;;18.63;13.03;;;4.80;99.90;;;;;;6274321;28;20551;-61
2021/12/27 12:27:04;;;;;;;15.20;11.47;;;4.70;99.90;;;;;;6273900;28;20546;-61
2021/12/27 12:30:13;;;;;;;18.17;11.80;;;4.70;99.90;;;;;;6274341;28;20492;-63
2021/12/27 12:33:19;;;;;;;16.67;11.10;;;4.60;99.90;;;;;;6273956;28;20856;-62
2021/12/27 12:36:23;;;;;;;17.87;12.70;;;4.60;99.90;;;;;;6273346;28;20470;-62
2021/12/27 12:39:36;;;;;;;18.37;12.00;;;4.60;99.90;;;;;;6254519;28;20459;-63
2021/12/27 12:42:41;;;;;;;18.23;10.63;;;4.60;99.90;;;;;;6250867;28;20471;-64
2021/12/27 12:45:44;;;;;;;14.27;10.43;;;4.60;99.90;;;;;;6263944;28;20783;-64
2021/12/27 12:48:58;;;;;;;19.00;13.20;;;4.60;99.90;;;;;;6275626;28;20794;-63
2021/12/27 12:52:07;;;;;;;23.83;17.23;;;4.60;99.90;;;;;;6262141;28;20475;-63
2021/12/27 12:55:13;;;;;;;31.07;19.80;;;4.60;99.90;;;;;;6250251;28;20815;-62
2021/12/27 12:58:16;;;;;;;35.00;21.73;;;4.60;99.90;;;;;;6250339;28;20471;-62
2021/12/27 13:01:19;;;;;;;39.80;20.50;;;4.60;99.90;;;;;;6251028;28;20471;-62
2021/12/27 13:04:23;;;;;;;35.57;23.13;;;4.50;99.90;;;;;;6250018;28;20487;-62
2021/12/27 13:07:36;;;;;;;29.60;18.53;;;4.40;99.90;;;;;;6252366;28;20991;-62
2021/12/27 13:10:39;;;;;;;41.10;23.43;;;4.50;99.90;;;;;;6275000;28;20536;-62
2021/12/27 13:13:43;;;;;;;88.07;42.00;;;4.50;99.90;;;;;;6248771;28;20540;-63
2021/12/27 13:16:46;;;;;;;30.70;17.90;;;4.40;99.90;;;;;;6249324;28;20486;-62
2021/12/27 13:20:06;;;;;;;67.30;33.77;;;4.40;99.90;;;;;;6249018;28;20479;-62
2021/12/27 13:23:13;;;;;;;61.87;32.00;;;4.30;99.90;;;;;;6247394;28;20540;-64
2021/12/27 13:26:18;;;;;;;75.93;39.53;;;4.10;99.90;;;;;;6248191;28;20486;-64
2021/12/27 13:29:21;;;;;;;37.10;22.10;;;3.90;99.90;;;;;;6249341;28;20486;-63
2021/12/27 13:32:24;;;;;;;39.67;24.40;;;3.70;99.90;;;;;;6249515;28;20804;-63
2021/12/27 13:35:27;;;;;;;50.03;30.97;;;3.70;99.90;;;;;;6249648;28;20480;-63
2021/12/27 13:38:34;;;;;;;33.33;22.57;;;3.80;99.90;;;;;;6264036;28;20466;-63
2021/12/27 13:41:39;;;;;;;40.73;26.40;;;3.90;99.90;;;;;;6271135;28;20494;-63
2021/12/27 13:44:43;;;;;;;30.90;21.37;;;3.90;99.90;;;;;;6254075;28;20486;-63
2021/12/27 13:47:50;;;;;;;29.03;17.57;;;3.90;99.90;;;;;;6266982;28;20485;-63
2021/12/27 13:50:55;;;;;;;24.90;18.07;;;3.90;99.90;;;;;;6253505;28;20807;-63
2021/12/27 13:54:02;;;;;;;24.43;15.57;;;3.90;99.90;;;;;;6250154;28;20946;-63
2021/12/27 13:57:06;;;;;;;27.13;17.30;;;4.00;99.90;;;;;;6249213;28;20435;-62
2021/12/27 14:00:10;;;;;;;24.00;17.17;;;4.10;99.90;;;;;;6249178;28;20465;-64
2021/12/27 14:03:33;;;;;;;27.77;17.80;;;4.10;99.90;;;;;;6260065;28;20787;-62
2021/12/27 14:06:41;;;;;;;22.33;15.43;;;4.10;99.90;;;;;;6271732;28;20474;-62
2021/12/27 14:09:48;;;;;;;22.00;14.47;;;4.20;99.90;;;;;;6259322;28;20493;-63
2021/12/27 14:12:59;;;;;;;16.73;13.33;;;4.30;99.90;;;;;;6261497;28;20545;-62
2021/12/27 14:16:19;;;;;;;17.60;13.80;;;4.30;99.90;;;;;;6252351;28;20477;-62
2021/12/27 14:19:24;;;;;;;18.77;13.37;;;4.20;99.90;;;;;;6249092;28;20987;-62
2021/12/27 14:22:38;;;;;;;20.30;15.87;;;4.30;99.90;;;;;;6249036;28;20804;-61
2021/12/27 14:25:43;;;;;;;21.20;14.63;;;4.20;99.90;;;;;;6253055;28;20833;-62
2021/12/27 14:28:46;;;;;;;22.03;16.27;;;4.20;99.90;;;;;;6273388;28;20474;-62
2021/12/27 14:31:50;;;;;;;20.60;14.03;;;4.20;99.90;;;;;;6249834;28;20471;-62
2021/12/27 14:34:54;;;;;;;18.83;13.27;;;4.20;99.90;;;;;;6262151;28;20497;-62
2021/12/27 14:37:59;;;;;;;18.70;13.53;;;4.30;99.90;;;;;;6278875;28;20474;-62
2021/12/27 14:41:05;;;;;;;20.87;12.90;;;4.30;99.90;;;;;;6279185;28;20477;-62
2021/12/27 14:44:08;;;;;;;18.13;12.80;;;4.40;99.90;;;;;;6278300;28;20813;-64
2021/12/27 14:47:12;;;;;;;17.40;13.17;;;4.50;99.90;;;;;;6254481;28;20853;-63
2021/12/27 14:50:15;;;;;;;19.10;13.97;;;4.50;99.90;;;;;;6254592;28;20489;-63
2021/12/27 14:53:20;;;;;;;18.27;13.63;;;4.50;99.90;;;;;;6254189;28;20482;-61
2021/12/27 14:56:25;;;;;;;18.10;13.30;;;4.40;99.90;;;;;;6254192;28;20850;-61
2021/12/27 14:59:28;;;;;;;20.73;15.00;;;4.40;99.90;;;;;;6256195;28;20463;-61
2021/12/27 15:02:31;;;;;;;21.30;13.20;;;4.40;99.90;;;;;;6259633;28;20784;-61
2021/12/27 15:05:34;;;;;;;20.57;13.63;;;4.40;99.90;;;;;;6253015;28;20478;-61
2021/12/27 15:08:38;;;;;;;18.90;13.50;;;4.40;99.90;;;;;;6253431;28;20471;-61
2021/12/27 15:11:42;;;;;;;20.87;14.77;;;4.40;99.90;;;;;;6273122;28;20501;-61
2021/12/27 15:14:45;;;;;;;23.83;15.77;;;4.30;99.90;;;;;;6277653;28;20481;-61
2021/12/27 15:17:50;;;;;;;19.20;13.87;;;4.40;99.90;;;;;;6263275;28;20492;-61
2021/12/27 15:20:53;;;;;;;19.20;13.63;;;4.40;99.90;;;;;;6277692;28;20481;-62
2021/12/27 15:23:56;;;;;;;16.20;12.60;;;4.30;99.90;;;;;;6278223;28;20481;-63
2021/12/27 15:27:01;;;;;;;17.10;12.80;;;4.40;99.90;;;;;;6277154;28;20922;-62
2021/12/27 15:30:05;;;;;;;16.33;12.50;;;4.30;99.90;;;;;;6273516;28;20974;-62
2021/12/27 15:33:08;;;;;;;16.73;12.47;;;4.30;99.90;;;;;;6273033;28;20955;-62
2021/12/27 15:36:11;;;;;;;21.30;14.50;;;4.30;99.90;;;;;;6275792;28;20448;-63
2021/12/27 15:39:14;;;;;;;20.90;14.13;;;4.30;99.90;;;;;;6276624;28;20794;-63
2021/12/27 15:42:19;;;;;;;18.27;14.27;;;4.20;99.90;;;;;;6277145;28;20918;-62
2021/12/27 15:45:25;;;;;;;18.00;12.77;;;4.20;99.90;;;;;;6266552;28;20486;-63
2021/12/27 15:48:28;;;;;;;22.33;14.83;;;4.10;99.90;;;;;;6276408;28;20472;-63